sensor_id;sensor_type;location;lat;lon;timestamp;pressure;altitude;pressure_sealevel;temperature;humidity
1726;BME280;41776;48.260;8.928;2024-01-30T00:01:57;52240.41;;;-145.69;49.98
1726;BME280;41776;48.260;8.928;2024-01-30T00:04:23;52216.66;;;-145.69;49.55
1726;BME280;41776;48.260;8.928;2024-01-30T00:06:51;52276.06;;;-145.69;49.66
1726;BME280;41776;48.260;8.928;2024-01-30T00:09:18;52246.34;;;-145.69;48.74
1726;BME280;41776;48.260;8.928;2024-01-30T00:11:44;52204.75;;;-145.69;48.01
1726;BME280;41776;48.260;8.928;2024-01-30T00:14:11;52208.72;;;-145.69;47.53
1726;BME280;41776;48.260;8.928;2024-01-30T00:16:37;52238.44;;;-145.69;47.68
1726;BME280;41776;48.260;8.928;2024-01-30T00:19:05;52198.81;;;-145.69;48.08
1726;BME280;41776;48.260;8.928;2024-01-30T00:21:33;52248.34;;;-145.69;48.87
1726;BME280;41776;48.260;8.928;2024-01-30T00:24:00;52250.31;;;-145.69;49.12
1726;BME280;41776;48.260;8.928;2024-01-30T00:26:26;52232.50;;;-145.69;47.62
1726;BME280;41776;48.260;8.928;2024-01-30T00:28:53;52210.72;;;-145.69;47.58
1726;BME280;41776;48.260;8.928;2024-01-30T00:31:19;52278.03;;;-145.69;47.33
1726;BME280;41776;48.260;8.928;2024-01-30T00:33:46;52214.66;;;-145.69;48.20
1726;BME280;41776;48.260;8.928;2024-01-30T00:36:13;52250.31;;;-145.69;47.08
1726;BME280;41776;48.260;8.928;2024-01-30T00:38:40;52254.28;;;-145.69;46.42
1726;BME280;41776;48.260;8.928;2024-01-30T00:41:07;52210.72;;;-145.69;46.04
1726;BME280;41776;48.260;8.928;2024-01-30T00:43:34;52222.59;;;-145.69;45.66
1726;BME280;41776;48.260;8.928;2024-01-30T00:46:00;52228.53;;;-145.69;46.42
1726;BME280;41776;48.260;8.928;2024-01-30T00:48:27;52198.81;;;-145.69;45.18
1726;BME280;41776;48.260;8.928;2024-01-30T00:50:53;52218.63;;;-145.69;44.60
1726;BME280;41776;48.260;8.928;2024-01-30T00:53:21;52238.44;;;-145.69;44.82
1726;BME280;41776;48.260;8.928;2024-01-30T00:55:48;52214.66;;;-145.69;44.33
1726;BME280;41776;48.260;8.928;2024-01-30T00:58:14;52228.53;;;-145.69;43.46
1726;BME280;41776;48.260;8.928;2024-01-30T01:00:41;52220.59;;;-145.69;43.09
1726;BME280;41776;48.260;8.928;2024-01-30T01:03:07;52222.59;;;-145.69;42.38
1726;BME280;41776;48.260;8.928;2024-01-30T01:05:34;52214.66;;;-145.69;42.39
1726;BME280;41776;48.260;8.928;2024-01-30T01:08:00;52226.53;;;-145.69;43.00
1726;BME280;41776;48.260;8.928;2024-01-30T01:10:28;52246.34;;;-145.69;42.67
1726;BME280;41776;48.260;8.928;2024-01-30T01:12:54;52214.66;;;-145.69;42.69
1726;BME280;41776;48.260;8.928;2024-01-30T01:15:21;52198.81;;;-145.69;42.54
1726;BME280;41776;48.260;8.928;2024-01-30T01:17:47;52224.56;;;-145.69;42.66
1726;BME280;41776;48.260;8.928;2024-01-30T01:20:14;52214.66;;;-145.69;42.03
1726;BME280;41776;48.260;8.928;2024-01-30T01:22:41;52222.59;;;-145.69;42.10
1726;BME280;41776;48.260;8.928;2024-01-30T01:25:08;52220.59;;;-145.69;42.34
1726;BME280;41776;48.260;8.928;2024-01-30T01:27:36;52248.34;;;-145.69;42.67
1726;BME280;41776;48.260;8.928;2024-01-30T01:30:08;52202.78;;;-145.69;43.68
1726;BME280;41776;48.260;8.928;2024-01-30T01:32:35;52234.47;;;-145.69;42.82
1726;BME280;41776;48.260;8.928;2024-01-30T01:35:01;52200.81;;;-145.69;42.53
1726;BME280;41776;48.260;8.928;2024-01-30T01:37:30;52206.75;;;-145.69;42.28
1726;BME280;41776;48.260;8.928;2024-01-30T01:39:57;52238.44;;;-145.69;42.47
1726;BME280;41776;48.260;8.928;2024-01-30T01:42:23;52214.66;;;-145.69;42.87
1726;BME280;41776;48.260;8.928;2024-01-30T01:44:51;52230.50;;;-145.69;42.57
1726;BME280;41776;48.260;8.928;2024-01-30T01:47:18;52202.78;;;-145.69;42.69
1726;BME280;41776;48.260;8.928;2024-01-30T01:49:44;52226.53;;;-145.69;42.27
1726;BME280;41776;48.260;8.928;2024-01-30T01:52:11;52208.72;;;-145.69;42.96
1726;BME280;41776;48.260;8.928;2024-01-30T01:54:37;52230.50;;;-145.69;42.55
1726;BME280;41776;48.260;8.928;2024-01-30T01:57:04;52218.63;;;-145.69;42.12
1726;BME280;41776;48.260;8.928;2024-01-30T01:59:31;52192.88;;;-145.69;42.14
1726;BME280;41776;48.260;8.928;2024-01-30T02:02:00;52210.72;;;-145.69;42.10
1726;BME280;41776;48.260;8.928;2024-01-30T02:04:28;52208.72;;;-145.69;42.26
1726;BME280;41776;48.260;8.928;2024-01-30T02:06:55;52206.75;;;-145.69;41.46
1726;BME280;41776;48.260;8.928;2024-01-30T02:09:21;52218.63;;;-145.69;41.25
1726;BME280;41776;48.260;8.928;2024-01-30T02:11:48;52230.50;;;-145.69;41.37
1726;BME280;41776;48.260;8.928;2024-01-30T02:14:15;52200.81;;;-145.69;41.44
1726;BME280;41776;48.260;8.928;2024-01-30T02:16:41;52208.72;;;-145.69;41.62
1726;BME280;41776;48.260;8.928;2024-01-30T02:19:09;52234.47;;;-145.69;41.76
1726;BME280;41776;48.260;8.928;2024-01-30T02:21:37;52234.47;;;-145.69;41.63
1726;BME280;41776;48.260;8.928;2024-01-30T02:24:04;52206.75;;;-145.69;42.29
1726;BME280;41776;48.260;8.928;2024-01-30T02:26:31;52204.75;;;-145.69;41.71
1726;BME280;41776;48.260;8.928;2024-01-30T02:28:58;52218.63;;;-145.69;41.64
1726;BME280;41776;48.260;8.928;2024-01-30T02:31:25;52232.50;;;-145.69;41.87
1726;BME280;41776;48.260;8.928;2024-01-30T02:33:51;52220.59;;;-145.69;41.42
1726;BME280;41776;48.260;8.928;2024-01-30T02:36:18;52210.72;;;-145.69;41.62
1726;BME280;41776;48.260;8.928;2024-01-30T02:38:45;52169.13;;;-145.69;41.88
1726;BME280;41776;48.260;8.928;2024-01-30T02:41:12;52220.59;;;-145.69;41.60
1726;BME280;41776;48.260;8.928;2024-01-30T02:43:39;52222.59;;;-145.69;41.37
1726;BME280;41776;48.260;8.928;2024-01-30T02:46:05;52226.53;;;-145.69;41.48
1726;BME280;41776;48.260;8.928;2024-01-30T02:48:32;52218.63;;;-145.69;41.40
1726;BME280;41776;48.260;8.928;2024-01-30T02:50:58;52230.50;;;-145.69;41.88
1726;BME280;41776;48.260;8.928;2024-01-30T02:53:25;52256.25;;;-145.69;42.70
1726;BME280;41776;48.260;8.928;2024-01-30T02:55:53;52246.34;;;-145.69;42.21
1726;BME280;41776;48.260;8.928;2024-01-30T02:58:19;52218.63;;;-145.69;41.43
1726;BME280;41776;48.260;8.928;2024-01-30T03:00:46;52208.72;;;-145.69;40.98
1726;BME280;41776;48.260;8.928;2024-01-30T03:03:12;52196.84;;;-145.69;40.96
1726;BME280;41776;48.260;8.928;2024-01-30T03:05:39;52222.59;;;-145.69;41.81
1726;BME280;41776;48.260;8.928;2024-01-30T03:08:05;52224.56;;;-145.69;42.03
1726;BME280;41776;48.260;8.928;2024-01-30T03:10:32;52163.19;;;-145.69;41.39
1726;BME280;41776;48.260;8.928;2024-01-30T03:13:00;52216.66;;;-145.69;40.94
1726;BME280;41776;48.260;8.928;2024-01-30T03:15:26;52210.72;;;-145.69;40.53
1726;BME280;41776;48.260;8.928;2024-01-30T03:17:53;52192.88;;;-145.69;40.63
1726;BME280;41776;48.260;8.928;2024-01-30T03:20:20;52200.81;;;-145.69;40.70
1726;BME280;41776;48.260;8.928;2024-01-30T03:22:46;52218.63;;;-145.69;40.43
1726;BME280;41776;48.260;8.928;2024-01-30T03:25:12;52218.63;;;-145.69;40.80
1726;BME280;41776;48.260;8.928;2024-01-30T03:27:39;52200.81;;;-145.69;39.92
1726;BME280;41776;48.260;8.928;2024-01-30T03:30:08;52208.72;;;-145.69;40.59
1726;BME280;41776;48.260;8.928;2024-01-30T03:32:34;52179.03;;;-145.69;40.32
1726;BME280;41776;48.260;8.928;2024-01-30T03:35:01;52198.81;;;-145.69;40.11
1726;BME280;41776;48.260;8.928;2024-01-30T03:37:27;52218.63;;;-145.69;39.99
1726;BME280;41776;48.260;8.928;2024-01-30T03:39:54;52206.75;;;-145.69;39.50
1726;BME280;41776;48.260;8.928;2024-01-30T03:42:20;52222.59;;;-145.69;39.23
1726;BME280;41776;48.260;8.928;2024-01-30T03:44:47;52198.81;;;-145.69;40.33
1726;BME280;41776;48.260;8.928;2024-01-30T03:47:18;52230.50;;;-145.69;40.75
1726;BME280;41776;48.260;8.928;2024-01-30T03:49:44;52226.53;;;-145.69;41.24
1726;BME280;41776;48.260;8.928;2024-01-30T03:52:11;52210.72;;;-145.69;42.46
1726;BME280;41776;48.260;8.928;2024-01-30T03:54:38;52224.56;;;-145.69;40.14
1726;BME280;41776;48.260;8.928;2024-01-30T03:57:05;52198.81;;;-145.69;43.15
1726;BME280;41776;48.260;8.928;2024-01-30T03:59:31;52204.75;;;-145.69;42.83
1726;BME280;41776;48.260;8.928;2024-01-30T04:01:58;52242.38;;;-145.69;40.54
1726;BME280;41776;48.260;8.928;2024-01-30T04:04:26;52210.72;;;-145.69;42.59
1726;BME280;41776;48.260;8.928;2024-01-30T04:06:52;52208.72;;;-145.69;42.03
1726;BME280;41776;48.260;8.928;2024-01-30T04:09:19;52190.91;;;-145.69;40.84
1726;BME280;41776;48.260;8.928;2024-01-30T04:11:45;52186.94;;;-145.69;40.88
1726;BME280;41776;48.260;8.928;2024-01-30T04:14:12;52218.63;;;-145.69;40.65
1726;BME280;41776;48.260;8.928;2024-01-30T04:16:38;52175.06;;;-145.69;40.47
1726;BME280;41776;48.260;8.928;2024-01-30T04:19:05;52212.69;;;-145.69;39.64
1726;BME280;41776;48.260;8.928;2024-01-30T04:21:32;52194.88;;;-145.69;41.98
1726;BME280;41776;48.260;8.928;2024-01-30T04:23:59;52206.75;;;-145.69;41.17
1726;BME280;41776;48.260;8.928;2024-01-30T04:26:25;52198.81;;;-145.69;40.15
1726;BME280;41776;48.260;8.928;2024-01-30T04:28:52;52190.91;;;-145.69;40.03
1726;BME280;41776;48.260;8.928;2024-01-30T04:31:18;52198.81;;;-145.69;39.47
1726;BME280;41776;48.260;8.928;2024-01-30T04:33:44;52200.81;;;-145.69;40.03
1726;BME280;41776;48.260;8.928;2024-01-30T04:36:11;52230.50;;;-145.69;39.95
1726;BME280;41776;48.260;8.928;2024-01-30T04:38:39;52190.91;;;-145.69;40.22
1726;BME280;41776;48.260;8.928;2024-01-30T04:41:05;52181.00;;;-145.69;40.13
1726;BME280;41776;48.260;8.928;2024-01-30T04:43:32;52188.91;;;-145.69;40.60
1726;BME280;41776;48.260;8.928;2024-01-30T04:45:58;52214.66;;;-145.69;40.91
1726;BME280;41776;48.260;8.928;2024-01-30T04:48:25;52198.81;;;-145.69;40.90
1726;BME280;41776;48.260;8.928;2024-01-30T04:50:51;52208.72;;;-145.69;41.40
1726;BME280;41776;48.260;8.928;2024-01-30T04:53:17;52206.75;;;-145.69;41.15
1726;BME280;41776;48.260;8.928;2024-01-30T04:55:45;52216.66;;;-145.69;41.17
1726;BME280;41776;48.260;8.928;2024-01-30T04:58:12;52194.88;;;-145.69;43.63
1726;BME280;41776;48.260;8.928;2024-01-30T05:00:38;52200.81;;;-145.69;43.53
1726;BME280;41776;48.260;8.928;2024-01-30T05:03:04;52204.75;;;-145.69;42.48
1726;BME280;41776;48.260;8.928;2024-01-30T05:05:31;52216.66;;;-145.69;41.82
1726;BME280;41776;48.260;8.928;2024-01-30T05:07:57;52214.66;;;-145.69;40.93
1726;BME280;41776;48.260;8.928;2024-01-30T05:10:24;52222.59;;;-145.69;41.64
1726;BME280;41776;48.260;8.928;2024-01-30T05:12:52;52236.44;;;-145.69;40.99
1726;BME280;41776;48.260;8.928;2024-01-30T05:15:19;52214.66;;;-145.69;41.53
1726;BME280;41776;48.260;8.928;2024-01-30T05:17:45;52226.53;;;-145.69;41.50
1726;BME280;41776;48.260;8.928;2024-01-30T05:20:12;52210.72;;;-145.69;41.60
1726;BME280;41776;48.260;8.928;2024-01-30T05:22:39;52230.50;;;-145.69;41.49
1726;BME280;41776;48.260;8.928;2024-01-30T05:25:10;52186.94;;;-145.69;40.89
1726;BME280;41776;48.260;8.928;2024-01-30T05:27:36;52186.94;;;-145.69;41.46
1726;BME280;41776;48.260;8.928;2024-01-30T05:30:05;52182.97;;;-145.69;41.00
1726;BME280;41776;48.260;8.928;2024-01-30T05:32:32;52206.75;;;-145.69;41.10
1726;BME280;41776;48.260;8.928;2024-01-30T05:34:59;52218.63;;;-145.69;41.83
1726;BME280;41776;48.260;8.928;2024-01-30T05:37:25;52192.88;;;-145.69;43.66
1726;BME280;41776;48.260;8.928;2024-01-30T05:39:52;52218.63;;;-145.69;42.97
1726;BME280;41776;48.260;8.928;2024-01-30T05:42:18;52220.59;;;-145.69;42.13
1726;BME280;41776;48.260;8.928;2024-01-30T05:44:44;52214.66;;;-145.69;43.07
1726;BME280;41776;48.260;8.928;2024-01-30T05:47:12;52210.72;;;-145.69;42.69
1726;BME280;41776;48.260;8.928;2024-01-30T05:49:39;52206.75;;;-145.69;43.13
1726;BME280;41776;48.260;8.928;2024-01-30T05:52:05;52244.38;;;-145.69;42.31
1726;BME280;41776;48.260;8.928;2024-01-30T05:54:32;52226.53;;;-145.69;41.72
1726;BME280;41776;48.260;8.928;2024-01-30T05:56:59;52194.88;;;-145.69;42.08
1726;BME280;41776;48.260;8.928;2024-01-30T05:59:25;52194.88;;;-145.69;42.05
1726;BME280;41776;48.260;8.928;2024-01-30T06:01:51;52210.72;;;-145.69;41.23
1726;BME280;41776;48.260;8.928;2024-01-30T06:04:20;52192.88;;;-145.69;41.27
1726;BME280;41776;48.260;8.928;2024-01-30T06:06:46;52214.66;;;-145.69;41.18
1726;BME280;41776;48.260;8.928;2024-01-30T06:09:13;52186.94;;;-145.69;40.91
1726;BME280;41776;48.260;8.928;2024-01-30T06:11:40;52218.63;;;-145.69;40.63
1726;BME280;41776;48.260;8.928;2024-01-30T06:14:06;52202.78;;;-145.69;41.26
1726;BME280;41776;48.260;8.928;2024-01-30T06:16:33;52214.66;;;-145.69;40.93
1726;BME280;41776;48.260;8.928;2024-01-30T06:18:59;52228.53;;;-145.69;40.43
1726;BME280;41776;48.260;8.928;2024-01-30T06:21:27;52192.88;;;-145.69;40.42
1726;BME280;41776;48.260;8.928;2024-01-30T06:23:53;52198.81;;;-145.69;39.91
1726;BME280;41776;48.260;8.928;2024-01-30T06:26:20;52214.66;;;-145.69;39.73
1726;BME280;41776;48.260;8.928;2024-01-30T06:28:46;52202.78;;;-145.69;39.60
1726;BME280;41776;48.260;8.928;2024-01-30T06:31:13;52202.78;;;-145.69;40.40
1726;BME280;41776;48.260;8.928;2024-01-30T06:33:39;52214.66;;;-145.69;40.01
1726;BME280;41776;48.260;8.928;2024-01-30T06:36:07;52208.72;;;-145.69;39.96
1726;BME280;41776;48.260;8.928;2024-01-30T06:38:35;52210.72;;;-145.69;40.30
1726;BME280;41776;48.260;8.928;2024-01-30T06:41:02;52181.00;;;-145.69;40.88
1726;BME280;41776;48.260;8.928;2024-01-30T06:43:28;52194.88;;;-145.69;41.93
1726;BME280;41776;48.260;8.928;2024-01-30T06:45:54;52200.81;;;-145.69;41.57
1726;BME280;41776;48.260;8.928;2024-01-30T06:48:21;52194.88;;;-145.69;41.06
1726;BME280;41776;48.260;8.928;2024-01-30T06:50:47;52159.22;;;-145.69;41.73
1726;BME280;41776;48.260;8.928;2024-01-30T06:53:14;52190.91;;;-145.69;41.86
1726;BME280;41776;48.260;8.928;2024-01-30T06:55:42;52226.53;;;-145.69;43.37
1726;BME280;41776;48.260;8.928;2024-01-30T06:58:08;52216.66;;;-145.69;43.60
1726;BME280;41776;48.260;8.928;2024-01-30T07:00:35;52208.72;;;-145.69;44.33
1726;BME280;41776;48.260;8.928;2024-01-30T07:03:01;52210.72;;;-145.69;43.60
1726;BME280;41776;48.260;8.928;2024-01-30T07:05:28;52232.50;;;-145.69;43.20
1726;BME280;41776;48.260;8.928;2024-01-30T07:07:54;52184.97;;;-145.69;42.98
1726;BME280;41776;48.260;8.928;2024-01-30T07:10:21;52186.94;;;-145.69;42.17
1726;BME280;41776;48.260;8.928;2024-01-30T07:12:48;52218.63;;;-145.69;42.78
1726;BME280;41776;48.260;8.928;2024-01-30T07:15:15;52212.69;;;-145.69;43.35
1726;BME280;41776;48.260;8.928;2024-01-30T07:17:44;52214.66;;;-145.69;42.98
1726;BME280;41776;48.260;8.928;2024-01-30T07:20:11;52202.78;;;-145.69;42.95
1726;BME280;41776;48.260;8.928;2024-01-30T07:22:38;52198.81;;;-145.69;44.66
1726;BME280;41776;48.260;8.928;2024-01-30T07:25:05;52222.59;;;-145.69;43.11
1726;BME280;41776;48.260;8.928;2024-01-30T07:27:32;52226.53;;;-145.69;43.40
1726;BME280;41776;48.260;8.928;2024-01-30T07:30:00;52200.81;;;-145.69;42.72
1726;BME280;41776;48.260;8.928;2024-01-30T07:32:26;52188.91;;;-145.69;42.28
1726;BME280;41776;48.260;8.928;2024-01-30T07:34:53;52206.75;;;-145.69;41.76
1726;BME280;41776;48.260;8.928;2024-01-30T07:37:19;52204.75;;;-145.69;42.69
1726;BME280;41776;48.260;8.928;2024-01-30T07:39:46;52200.81;;;-145.69;41.95
1726;BME280;41776;48.260;8.928;2024-01-30T07:42:13;52190.91;;;-145.69;41.89
1726;BME280;41776;48.260;8.928;2024-01-30T07:44:39;52194.88;;;-145.69;41.96
1726;BME280;41776;48.260;8.928;2024-01-30T07:47:07;52186.94;;;-145.69;43.10
1726;BME280;41776;48.260;8.928;2024-01-30T07:49:34;52190.91;;;-145.69;40.93
1726;BME280;41776;48.260;8.928;2024-01-30T07:52:00;52190.91;;;-145.69;40.78
1726;BME280;41776;48.260;8.928;2024-01-30T07:54:27;52190.91;;;-145.69;41.24
1726;BME280;41776;48.260;8.928;2024-01-30T07:56:54;52190.91;;;-145.69;41.80
1726;BME280;41776;48.260;8.928;2024-01-30T07:59:20;52181.00;;;-145.69;41.74
1726;BME280;41776;48.260;8.928;2024-01-30T08:01:50;52198.81;;;-145.69;40.88
1726;BME280;41776;48.260;8.928;2024-01-30T08:04:17;52212.69;;;-145.69;40.48
1726;BME280;41776;48.260;8.928;2024-01-30T08:06:44;52186.94;;;-145.69;41.05
1726;BME280;41776;48.260;8.928;2024-01-30T08:09:10;52161.19;;;-145.69;41.62
1726;BME280;41776;48.260;8.928;2024-01-30T08:11:37;52163.19;;;-145.69;42.00
1726;BME280;41776;48.260;8.928;2024-01-30T08:14:03;52143.38;;;-145.69;41.57
1726;BME280;41776;48.260;8.928;2024-01-30T08:16:30;52169.13;;;-145.69;40.66
1726;BME280;41776;48.260;8.928;2024-01-30T08:18:56;52206.75;;;-145.69;41.97
1726;BME280;41776;48.260;8.928;2024-01-30T08:21:24;52179.03;;;-145.69;41.06
1726;BME280;41776;48.260;8.928;2024-01-30T08:23:50;52198.81;;;-145.69;40.96
1726;BME280;41776;48.260;8.928;2024-01-30T08:26:17;52200.81;;;-145.69;40.24
1726;BME280;41776;48.260;8.928;2024-01-30T08:28:43;52167.13;;;-145.69;39.60
1726;BME280;41776;48.260;8.928;2024-01-30T08:31:10;52192.88;;;-145.69;38.95
1726;BME280;41776;48.260;8.928;2024-01-30T08:33:36;52210.72;;;-145.69;37.67
1726;BME280;41776;48.260;8.928;2024-01-30T08:36:03;52181.00;;;-145.69;38.22
1726;BME280;41776;48.260;8.928;2024-01-30T08:38:31;52181.00;;;-145.69;38.68
1726;BME280;41776;48.260;8.928;2024-01-30T08:40:57;52151.28;;;-145.69;37.49
1726;BME280;41776;48.260;8.928;2024-01-30T08:43:24;52171.09;;;-145.69;38.08
1726;BME280;41776;48.260;8.928;2024-01-30T08:45:50;52177.03;;;-145.69;37.37
1726;BME280;41776;48.260;8.928;2024-01-30T08:48:16;52145.34;;;-145.69;37.77
1726;BME280;41776;48.260;8.928;2024-01-30T08:50:43;52171.09;;;-145.69;37.32
1726;BME280;41776;48.260;8.928;2024-01-30T08:53:10;52145.34;;;-145.69;36.69
1726;BME280;41776;48.260;8.928;2024-01-30T08:55:38;52159.22;;;-145.69;37.07
1726;BME280;41776;48.260;8.928;2024-01-30T08:58:05;52177.03;;;-145.69;36.88
1726;BME280;41776;48.260;8.928;2024-01-30T09:00:31;52153.28;;;-145.69;36.95
1726;BME280;41776;48.260;8.928;2024-01-30T09:02:58;52155.25;;;-145.69;36.44
1726;BME280;41776;48.260;8.928;2024-01-30T09:05:24;52147.34;;;-145.69;36.63
1726;BME280;41776;48.260;8.928;2024-01-30T09:07:51;52167.13;;;-145.69;35.95
1726;BME280;41776;48.260;8.928;2024-01-30T09:10:20;52155.25;;;-145.69;36.16
1726;BME280;41776;48.260;8.928;2024-01-30T09:12:53;52109.72;;;-145.69;35.23
1726;BME280;41776;48.260;8.928;2024-01-30T09:15:19;52103.78;;;-145.69;35.19
1726;BME280;41776;48.260;8.928;2024-01-30T09:17:46;52125.56;;;-145.69;35.21
1726;BME280;41776;48.260;8.928;2024-01-30T09:20:12;52127.53;;;-145.69;35.11
1726;BME280;41776;48.260;8.928;2024-01-30T09:22:38;52121.59;;;-145.69;34.77
1726;BME280;41776;48.260;8.928;2024-01-30T09:25:05;52099.81;;;-145.69;34.91
1726;BME280;41776;48.260;8.928;2024-01-30T09:27:32;52149.31;;;-145.69;34.77
1726;BME280;41776;48.260;8.928;2024-01-30T09:30:00;52159.22;;;-145.69;34.59
1726;BME280;41776;48.260;8.928;2024-01-30T09:32:26;52127.53;;;-145.69;34.81
1726;BME280;41776;48.260;8.928;2024-01-30T09:34:53;52121.59;;;-145.69;34.68
1726;BME280;41776;48.260;8.928;2024-01-30T09:37:19;52080.00;;;-145.69;34.32
1726;BME280;41776;48.260;8.928;2024-01-30T09:39:46;52117.63;;;-145.69;33.94
1726;BME280;41776;48.260;8.928;2024-01-30T09:42:19;52109.72;;;-145.69;33.20
1726;BME280;41776;48.260;8.928;2024-01-30T09:44:50;52060.22;;;-145.69;33.62
1726;BME280;41776;48.260;8.928;2024-01-30T09:47:19;52091.88;;;-145.69;33.00
1726;BME280;41776;48.260;8.928;2024-01-30T09:49:46;52099.81;;;-145.69;32.94
1726;BME280;41776;48.260;8.928;2024-01-30T09:52:14;52083.97;;;-145.69;33.08
1726;BME280;41776;48.260;8.928;2024-01-30T09:54:41;52068.13;;;-145.69;32.88
1726;BME280;41776;48.260;8.928;2024-01-30T09:57:11;52115.66;;;-145.69;31.73
1726;BME280;41776;48.260;8.928;2024-01-30T09:59:37;52064.16;;;-145.69;32.08
1726;BME280;41776;48.260;8.928;2024-01-30T10:02:04;52095.84;;;-145.69;31.71
1726;BME280;41776;48.260;8.928;2024-01-30T10:04:32;52095.84;;;-145.69;31.65
1726;BME280;41776;48.260;8.928;2024-01-30T10:07:01;52076.03;;;-145.69;31.03
1726;BME280;41776;48.260;8.928;2024-01-30T10:09:27;52068.13;;;-145.69;31.54
1726;BME280;41776;48.260;8.928;2024-01-30T10:11:54;52066.16;;;-145.69;31.91
1726;BME280;41776;48.260;8.928;2024-01-30T10:14:20;52099.81;;;-145.69;31.63
1726;BME280;41776;48.260;8.928;2024-01-30T10:16:47;52089.91;;;-145.69;31.66
1726;BME280;41776;48.260;8.928;2024-01-30T10:19:13;52085.94;;;-145.69;31.29
1726;BME280;41776;48.260;8.928;2024-01-30T10:21:41;52040.41;;;-145.69;30.86
1726;BME280;41776;48.260;8.928;2024-01-30T10:24:08;52083.97;;;-145.69;30.65
1726;BME280;41776;48.260;8.928;2024-01-30T10:26:38;52070.09;;;-145.69;30.56
1726;BME280;41776;48.260;8.928;2024-01-30T10:29:04;52046.34;;;-145.69;30.88
1726;BME280;41776;48.260;8.928;2024-01-30T10:31:31;52091.88;;;-145.69;30.05
1726;BME280;41776;48.260;8.928;2024-01-30T10:33:57;52048.31;;;-145.69;30.11
1726;BME280;41776;48.260;8.928;2024-01-30T10:36:27;52028.53;;;-145.69;30.50
1726;BME280;41776;48.260;8.928;2024-01-30T10:38:59;52028.53;;;-145.69;30.52
1726;BME280;41776;48.260;8.928;2024-01-30T10:41:27;52064.16;;;-145.69;29.52
1726;BME280;41776;48.260;8.928;2024-01-30T10:43:58;52022.59;;;-145.69;29.89
1726;BME280;41776;48.260;8.928;2024-01-30T10:46:30;52060.22;;;-145.69;30.39
1726;BME280;41776;48.260;8.928;2024-01-30T10:49:00;52080.00;;;-145.69;30.47
1726;BME280;41776;48.260;8.928;2024-01-30T10:51:31;52038.44;;;-145.69;30.93
1726;BME280;41776;48.260;8.928;2024-01-30T10:54:00;52056.25;;;-145.69;30.41
1726;BME280;41776;48.260;8.928;2024-01-30T10:56:27;52030.50;;;-145.69;29.88
1726;BME280;41776;48.260;8.928;2024-01-30T10:58:54;52022.59;;;-145.69;29.41
1726;BME280;41776;48.260;8.928;2024-01-30T11:01:22;52022.59;;;-145.69;29.11
1726;BME280;41776;48.260;8.928;2024-01-30T11:03:50;52008.72;;;-145.69;28.71
1726;BME280;41776;48.260;8.928;2024-01-30T11:06:18;52024.56;;;-145.69;28.74
1726;BME280;41776;48.260;8.928;2024-01-30T11:08:45;52032.47;;;-145.69;28.22
1726;BME280;41776;48.260;8.928;2024-01-30T11:11:13;52032.47;;;-145.69;28.54
1726;BME280;41776;48.260;8.928;2024-01-30T11:13:44;52022.59;;;-145.69;28.50
1726;BME280;41776;48.260;8.928;2024-01-30T11:16:11;52044.38;;;-145.69;28.20
1726;BME280;41776;48.260;8.928;2024-01-30T11:18:37;52034.47;;;-145.69;27.30
1726;BME280;41776;48.260;8.928;2024-01-30T11:21:04;52032.47;;;-145.69;28.38
1726;BME280;41776;48.260;8.928;2024-01-30T11:23:36;52040.41;;;-145.69;28.27
1726;BME280;41776;48.260;8.928;2024-01-30T11:26:03;52012.69;;;-145.69;27.81
1726;BME280;41776;48.260;8.928;2024-01-30T11:28:37;52048.31;;;-145.69;27.90
1726;BME280;41776;48.260;8.928;2024-01-30T11:31:05;51986.94;;;-145.69;28.05
1726;BME280;41776;48.260;8.928;2024-01-30T11:33:32;52036.44;;;-145.69;28.29
1726;BME280;41776;48.260;8.928;2024-01-30T11:36:00;52022.59;;;-145.69;27.74
1726;BME280;41776;48.260;8.928;2024-01-30T11:38:27;52016.66;;;-145.69;27.64
1726;BME280;41776;48.260;8.928;2024-01-30T11:40:56;52026.53;;;-145.69;28.07
1726;BME280;41776;48.260;8.928;2024-01-30T11:43:23;52034.47;;;-145.69;27.82
1726;BME280;41776;48.260;8.928;2024-01-30T11:45:51;51990.91;;;-145.69;27.97
1726;BME280;41776;48.260;8.928;2024-01-30T11:48:18;51996.84;;;-145.69;27.63
1726;BME280;41776;48.260;8.928;2024-01-30T11:50:44;52014.66;;;-145.69;27.59
1726;BME280;41776;48.260;8.928;2024-01-30T11:53:11;52036.44;;;-145.69;27.26
1726;BME280;41776;48.260;8.928;2024-01-30T11:55:38;52020.59;;;-145.69;26.92
1726;BME280;41776;48.260;8.928;2024-01-30T11:58:08;51998.81;;;-145.69;27.53
1726;BME280;41776;48.260;8.928;2024-01-30T12:00:34;52012.69;;;-145.69;27.03
1726;BME280;41776;48.260;8.928;2024-01-30T12:03:03;52010.69;;;-145.69;27.42
1726;BME280;41776;48.260;8.928;2024-01-30T12:05:32;51981.00;;;-145.69;26.72
1726;BME280;41776;48.260;8.928;2024-01-30T12:07:58;52016.66;;;-145.69;27.15
1726;BME280;41776;48.260;8.928;2024-01-30T12:10:25;52006.75;;;-145.69;26.99
1726;BME280;41776;48.260;8.928;2024-01-30T12:12:53;52004.75;;;-145.69;27.27
1726;BME280;41776;48.260;8.928;2024-01-30T12:15:21;51977.03;;;-145.69;27.57
1726;BME280;41776;48.260;8.928;2024-01-30T12:17:48;52008.72;;;-145.69;27.09
1726;BME280;41776;48.260;8.928;2024-01-30T12:20:18;51979.03;;;-145.69;26.65
1726;BME280;41776;48.260;8.928;2024-01-30T12:22:47;51998.81;;;-145.69;26.98
1726;BME280;41776;48.260;8.928;2024-01-30T12:25:15;52010.69;;;-145.69;26.71
1726;BME280;41776;48.260;8.928;2024-01-30T12:27:45;52016.66;;;-145.69;28.24
1726;BME280;41776;48.260;8.928;2024-01-30T12:30:13;51982.97;;;-145.69;27.83
1726;BME280;41776;48.260;8.928;2024-01-30T12:32:41;52000.81;;;-145.69;26.90
1726;BME280;41776;48.260;8.928;2024-01-30T12:35:09;51998.81;;;-145.69;27.10
1726;BME280;41776;48.260;8.928;2024-01-30T12:37:38;52012.69;;;-145.69;27.21
1726;BME280;41776;48.260;8.928;2024-01-30T12:40:05;51992.88;;;-145.69;27.21
1726;BME280;41776;48.260;8.928;2024-01-30T12:42:32;52004.75;;;-145.69;27.33
1726;BME280;41776;48.260;8.928;2024-01-30T12:44:59;52004.75;;;-145.69;27.81
1726;BME280;41776;48.260;8.928;2024-01-30T12:47:26;52008.72;;;-145.69;26.95
1726;BME280;41776;48.260;8.928;2024-01-30T12:49:52;51998.81;;;-145.69;27.41